Time;durP1;ratioP1;P1;durP2;ratioP2;P2;SDS_P1;SDS_P2;PMS_P1;PMS_P2;Temp;Humidity;BMP_temperature;BMP_pressure;BME280_temperature;BME280_humidity;BME280_pressure;Samples;Min_cycle;Max_cycle;Signal;HPM_P1;HPM_P2
2022/09/19 00:01:30;;;;;;;1.50;0.60;;;9.70;19.80;;;;;;5092488;27;34248;-75
2022/09/19 00:03:59;;;;;;;0.68;0.50;;;9.60;20.00;;;;;;5109188;27;35217;-75
2022/09/19 00:06:27;;;;;;;0.40;0.40;;;9.60;19.70;;;;;;5109264;27;34031;-75
2022/09/19 00:08:54;;;;;;;0.43;0.40;;;9.60;19.80;;;;;;5108800;27;34179;-76
2022/09/19 00:11:21;;;;;;;0.50;0.50;;;9.50;19.90;;;;;;5092383;27;34151;-76
2022/09/19 00:13:49;;;;;;;0.40;0.40;;;9.50;20.00;;;;;;5126495;27;34404;-76
2022/09/19 00:16:26;;;;;;;0.32;0.32;;;9.50;20.40;;;;;;5109100;27;34286;-75
2022/09/19 00:18:53;;;;;;;0.73;0.40;;;9.50;20.30;;;;;;5075360;27;34191;-75
2022/09/19 00:21:22;;;;;;;2.70;0.47;;;9.40;19.80;;;;;;5127667;27;34204;-76
2022/09/19 00:26:29;;;;;;;0.35;0.35;;;9.40;20.30;;;;;;5126632;27;34131;-76
2022/09/19 00:28:55;;;;;;;1.73;0.43;;;9.40;20.20;;;;;;5109334;27;34147;-76
2022/09/19 00:31:21;;;;;;;0.70;0.43;;;9.40;20.10;;;;;;5075107;27;34492;-76
2022/09/19 00:33:49;;;;;;;0.70;0.60;;;9.30;20.10;;;;;;5108204;27;35648;-75
2022/09/19 00:36:16;;;;;;;1.83;0.68;;;9.30;20.00;;;;;;5108698;27;34058;-75
2022/09/19 00:38:44;;;;;;;6.30;0.60;;;9.30;20.50;;;;;;5108775;27;34242;-76
2022/09/19 00:41:15;;;;;;;0.95;0.57;;;9.30;20.20;;;;;;5109342;27;34298;-75
2022/09/19 00:44:00;;;;;;;3.92;0.57;;;9.30;20.60;;;;;;5108347;27;34079;-76
2022/09/19 00:46:28;;;;;;;0.50;0.50;;;9.30;21.20;;;;;;5108699;27;34301;-75
2022/09/19 00:49:06;;;;;;;1.75;0.43;;;9.30;20.10;;;;;;5108195;27;34515;-76
2022/09/19 00:51:37;;;;;;;1.38;0.50;;;9.20;20.80;;;;;;5107803;27;34050;-75
2022/09/19 00:54:11;;;;;;;0.90;0.50;;;9.20;20.70;;;;;;5091491;27;35842;-76
2022/09/19 00:56:45;;;;;;;0.50;0.50;;;9.20;20.90;;;;;;5125853;27;34096;-76
2022/09/19 00:59:12;;;;;;;0.50;0.50;;;9.20;20.90;;;;;;5108342;27;34137;-76
2022/09/19 01:01:39;;;;;;;1.58;0.52;;;9.10;21.10;;;;;;5108253;27;34126;-75
2022/09/19 01:04:17;;;;;;;0.60;0.60;;;9.10;21.00;;;;;;5108254;27;35758;-75
2022/09/19 01:07:04;;;;;;;0.30;0.30;;;9.10;21.30;;;;;;5107841;27;34074;-75
2022/09/19 01:10:01;;;;;;;0.60;0.50;;;9.00;22.40;;;;;;5126272;27;34069;-76
2022/09/19 01:12:47;;;;;;;1.45;0.70;;;9.00;22.00;;;;;;5108147;27;34312;-75
2022/09/19 01:15:32;;;;;;;1.33;0.50;;;9.00;21.50;;;;;;5107574;27;36133;-76
2022/09/19 01:18:01;;;;;;;0.40;0.40;;;8.90;22.00;;;;;;5107676;27;34158;-75
2022/09/19 01:20:57;;;;;;;1.75;0.47;;;8.90;21.50;;;;;;5074430;27;34518;-76
2022/09/19 01:23:57;;;;;;;7.35;0.60;;;8.90;22.20;;;;;;5112821;27;34366;-76
2022/09/19 01:26:49;;;;;;;0.80;0.50;;;8.90;22.30;;;;;;5107574;27;35618;-75
2022/09/19 01:29:22;;;;;;;0.40;0.40;;;8.80;22.70;;;;;;5110436;27;34172;-76
2022/09/19 01:31:52;;;;;;;1.17;0.50;;;8.80;21.40;;;;;;5107251;27;34108;-75
2022/09/19 01:34:28;;;;;;;0.60;0.60;;;8.80;21.80;;;;;;5107259;27;34345;-76
2022/09/19 01:37:16;;;;;;;1.42;0.77;;;8.80;21.50;;;;;;5091534;27;35621;-76
2022/09/19 01:39:46;;;;;;;0.90;0.47;;;8.80;21.80;;;;;;5092540;27;34277;-75
2022/09/19 01:42:14;;;;;;;0.50;0.50;;;8.80;21.50;;;;;;5090452;27;34336;-76
2022/09/19 01:44:40;;;;;;;1.02;0.43;;;8.80;21.40;;;;;;5090545;27;34087;-76
2022/09/19 01:47:20;;;;;;;0.88;0.52;;;8.80;21.30;;;;;;5125610;27;34128;-76
2022/09/19 01:50:07;;;;;;;2.35;0.70;;;8.80;22.70;;;;;;5091234;27;34030;-75
2022/09/19 01:53:05;;;;;;;1.00;0.60;;;8.80;22.90;;;;;;5106731;27;34059;-76
2022/09/19 01:55:44;;;;;;;2.08;0.73;;;8.80;22.20;;;;;;5107271;27;34486;-76
2022/09/19 01:58:35;;;;;;;1.38;0.88;;;8.90;22.40;;;;;;5107110;27;35597;-75
2022/09/19 02:01:13;;;;;;;1.70;0.52;;;8.80;22.90;;;;;;5093908;27;34316;-76
2022/09/19 02:04:00;;;;;;;0.80;0.60;;;8.80;21.60;;;;;;5074396;27;34323;-76
2022/09/19 02:06:46;;;;;;;1.65;0.45;;;8.80;21.70;;;;;;5125585;27;34053;-76
2022/09/19 02:09:33;;;;;;;0.80;0.80;;;8.70;22.20;;;;;;5106798;27;35800;-76
2022/09/19 02:12:01;;;;;;;0.57;0.57;;;8.70;22.20;;;;;;5074798;27;34452;-76
2022/09/19 02:14:31;;;;;;;1.05;0.65;;;8.70;21.30;;;;;;5107037;27;34021;-76
2022/09/19 02:17:07;;;;;;;1.52;0.60;;;8.60;21.20;;;;;;5106323;27;34115;-76
2022/09/19 02:19:38;;;;;;;2.40;0.85;;;8.60;21.30;;;;;;5105070;27;36463;-76
2022/09/19 02:22:22;;;;;;;0.63;0.63;;;8.60;21.70;;;;;;5105142;27;34393;-76
2022/09/19 02:24:51;;;;;;;1.17;0.70;;;8.50;21.70;;;;;;5106388;27;34637;-76
2022/09/19 02:27:21;;;;;;;2.08;0.60;;;8.50;21.60;;;;;;5106461;27;34084;-76
2022/09/19 02:29:53;;;;;;;1.85;0.68;;;8.50;21.60;;;;;;5089507;27;35508;-76
2022/09/19 02:32:20;;;;;;;0.95;0.50;;;8.50;21.60;;;;;;5107509;27;34257;-76
2022/09/19 02:34:49;;;;;;;0.75;0.75;;;8.50;22.20;;;;;;5106597;27;34521;-76
2022/09/19 02:37:26;;;;;;;0.63;0.60;;;8.40;21.50;;;;;;5107502;27;34135;-76
2022/09/19 02:40:02;;;;;;;0.50;0.50;;;8.40;21.70;;;;;;5106276;27;36051;-76
2022/09/19 02:42:46;;;;;;;0.85;0.75;;;8.40;21.60;;;;;;5089388;27;34163;-75
2022/09/19 02:45:22;;;;;;;0.47;0.47;;;8.40;21.50;;;;;;5124827;27;34169;-76
2022/09/19 02:48:08;;;;;;;0.90;0.70;;;8.40;21.70;;;;;;5089285;27;34255;-75
2022/09/19 02:50:48;;;;;;;0.63;0.63;;;8.30;22.20;;;;;;5088803;27;36537;-75
2022/09/19 02:53:22;;;;;;;0.70;0.70;;;8.30;21.80;;;;;;5108001;27;34451;-76
2022/09/19 02:55:52;;;;;;;0.70;0.68;;;8.30;22.20;;;;;;5106408;27;34409;-76
2022/09/19 02:58:21;;;;;;;2.05;0.70;;;8.20;21.80;;;;;;5073116;27;34184;-76
2022/09/19 03:00:52;;;;;;;0.70;0.70;;;8.20;21.80;;;;;;5089034;27;35963;-76
2022/09/19 03:06:22;;;;;;;0.73;0.73;;;8.20;22.10;;;;;;5108136;27;34261;-76
2022/09/19 03:08:52;;;;;;;5.28;0.80;;;8.20;21.40;;;;;;5123252;27;34216;-75
2022/09/19 03:11:20;;;;;;;2.25;0.75;;;8.20;21.60;;;;;;5105815;27;35600;-76
2022/09/19 03:13:46;;;;;;;1.75;0.70;;;8.20;21.50;;;;;;5106407;27;34426;-76
2022/09/19 03:16:17;;;;;;;8.70;0.90;;;8.10;21.40;;;;;;5072457;27;34266;-76
2022/09/19 03:18:46;;;;;;;2.42;0.95;;;8.20;21.40;;;;;;5105692;27;34052;-76
2022/09/19 03:21:13;;;;;;;2.25;0.80;;;8.20;21.80;;;;;;5108196;27;36820;-76
2022/09/19 03:23:44;;;;;;;0.80;0.73;;;8.20;21.10;;;;;;5109694;27;34068;-77
2022/09/19 03:26:17;;;;;;;1.73;0.80;;;8.20;21.20;;;;;;5092871;27;34249;-77
2022/09/19 03:28:42;;;;;;;1.25;0.98;;;8.20;21.20;;;;;;5127550;27;34296;-77
2022/09/19 03:31:08;;;;;;;2.05;0.95;;;8.20;21.10;;;;;;5108977;27;36435;-76
2022/09/19 03:33:35;;;;;;;2.17;1.00;;;8.20;21.60;;;;;;5092711;27;34099;-77
2022/09/19 03:36:06;;;;;;;1.58;1.00;;;8.20;21.40;;;;;;5109590;27;34109;-76
2022/09/19 03:38:32;;;;;;;1.40;1.13;;;8.20;21.30;;;;;;5093049;27;34168;-77
2022/09/19 03:40:58;;;;;;;1.92;1.00;;;8.20;22.00;;;;;;5108790;27;35731;-76
2022/09/19 03:43:24;;;;;;;2.00;0.90;;;8.20;21.90;;;;;;5092167;27;34086;-76
2022/09/19 03:45:50;;;;;;;2.05;1.10;;;8.30;21.20;;;;;;5092415;27;34091;-77
2022/09/19 03:48:16;;;;;;;1.70;1.10;;;8.30;21.60;;;;;;5109279;27;34408;-77
2022/09/19 03:50:42;;;;;;;1.60;1.05;;;8.30;22.20;;;;;;5092328;27;36257;-77
2022/09/19 03:53:10;;;;;;;2.42;0.82;;;8.30;22.50;;;;;;5075331;27;34047;-77
2022/09/19 03:55:37;;;;;;;3.55;0.95;;;8.30;22.40;;;;;;5075895;27;34370;-77
2022/09/19 03:58:04;;;;;;;4.40;1.23;;;8.30;22.80;;;;;;5109301;27;34576;-77
2022/09/19 04:00:32;;;;;;;2.15;1.30;;;8.30;22.30;;;;;;5091852;27;35826;-77
2022/09/19 04:02:58;;;;;;;2.88;1.20;;;8.30;22.20;;;;;;5109727;27;34345;-77
2022/09/19 04:05:24;;;;;;;1.15;1.05;;;8.30;22.20;;;;;;5092391;27;34194;-77
2022/09/19 04:07:50;;;;;;;2.70;1.20;;;8.30;22.10;;;;;;5092801;27;34536;-76
2022/09/19 04:10:16;;;;;;;0.98;0.88;;;8.30;22.10;;;;;;5091950;27;35682;-77
2022/09/19 04:12:42;;;;;;;4.28;1.13;;;8.30;22.20;;;;;;5091719;27;34494;-77
2022/09/19 04:15:08;;;;;;;1.13;1.02;;;8.30;22.60;;;;;;5108612;27;34276;-76
2022/09/19 04:17:35;;;;;;;2.28;1.08;;;8.30;22.20;;;;;;5091489;27;34132;-76
2022/09/19 04:20:01;;;;;;;1.30;0.90;;;8.30;22.00;;;;;;5092027;27;35874;-77
2022/09/19 04:22:27;;;;;;;2.38;1.00;;;8.30;22.10;;;;;;5091849;27;34140;-77
2022/09/19 04:24:53;;;;;;;1.20;1.13;;;8.30;21.90;;;;;;5109054;27;34341;-76
2022/09/19 04:27:19;;;;;;;3.63;1.27;;;8.30;22.30;;;;;;5074979;27;34227;-77
2022/09/19 04:29:45;;;;;;;1.38;1.20;;;8.20;22.00;;;;;;5108277;27;35624;-76
2022/09/19 04:32:12;;;;;;;2.67;1.10;;;8.30;22.20;;;;;;5107828;27;34320;-76
2022/09/19 04:34:38;;;;;;;6.57;1.92;;;8.20;21.80;;;;;;5108908;27;34111;-76
2022/09/19 04:37:06;;;;;;;4.35;1.17;;;8.20;21.80;;;;;;5091525;27;34062;-76
2022/09/19 04:39:31;;;;;;;1.90;1.48;;;8.20;22.60;;;;;;5091390;27;35718;-76
2022/09/19 04:41:59;;;;;;;2.17;1.33;;;8.20;22.50;;;;;;5108085;27;34220;-76
2022/09/19 04:44:28;;;;;;;3.00;1.15;;;8.20;22.50;;;;;;5108504;27;34182;-76
2022/09/19 04:46:55;;;;;;;1.70;1.35;;;8.20;22.40;;;;;;5108690;27;34324;-76
2022/09/19 04:49:21;;;;;;;1.40;1.30;;;8.10;22.30;;;;;;5091001;27;35718;-76
2022/09/19 04:51:47;;;;;;;1.00;1.00;;;8.10;22.40;;;;;;5108044;27;34126;-76
2022/09/19 04:54:14;;;;;;;3.08;1.80;;;8.10;21.60;;;;;;5108243;27;34206;-76
2022/09/19 04:56:44;;;;;;;4.75;1.50;;;8.10;22.10;;;;;;5108604;27;34436;-76
2022/09/19 04:59:10;;;;;;;2.08;1.33;;;8.00;21.90;;;;;;5107837;27;36595;-77
2022/09/19 05:01:37;;;;;;;1.25;1.15;;;8.00;21.70;;;;;;5108108;27;34202;-76
2022/09/19 05:04:04;;;;;;;1.15;1.05;;;7.90;21.80;;;;;;5108295;27;34203;-76
2022/09/19 05:06:30;;;;;;;1.35;1.25;;;7.90;22.00;;;;;;5108086;27;34658;-76
2022/09/19 05:08:58;;;;;;;2.97;1.30;;;7.80;22.60;;;;;;5107791;27;35763;-76
2022/09/19 05:11:25;;;;;;;2.88;1.45;;;7.80;22.30;;;;;;5107422;27;34190;-76
2022/09/19 05:13:52;;;;;;;1.52;1.40;;;7.80;22.20;;;;;;5108010;27;34144;-76
2022/09/19 05:16:19;;;;;;;2.00;1.40;;;7.80;21.90;;;;;;5126047;27;34126;-76
2022/09/19 05:18:45;;;;;;;2.17;1.52;;;7.70;21.90;;;;;;5107633;27;35634;-76
2022/09/19 05:21:14;;;;;;;1.67;1.15;;;7.70;21.80;;;;;;5107929;27;34183;-77
2022/09/19 05:23:40;;;;;;;1.63;1.52;;;7.70;22.50;;;;;;5107483;27;34145;-76
2022/09/19 05:26:09;;;;;;;1.92;1.35;;;7.70;22.00;;;;;;5107917;27;34544;-76
2022/09/19 05:28:36;;;;;;;2.40;1.38;;;7.70;22.20;;;;;;5106993;27;35933;-76
2022/09/19 05:31:05;;;;;;;2.40;1.70;;;7.60;21.80;;;;;;5090719;27;34404;-76
2022/09/19 05:33:32;;;;;;;3.83;1.58;;;7.60;22.00;;;;;;5090895;27;34062;-77
2022/09/19 05:36:00;;;;;;;1.60;1.50;;;7.60;22.20;;;;;;5107731;27;34152;-76
2022/09/19 05:38:29;;;;;;;1.30;1.20;;;7.60;22.30;;;;;;5107467;27;35708;-76
2022/09/19 05:40:56;;;;;;;1.52;1.23;;;7.60;22.30;;;;;;5107845;27;34349;-77
2022/09/19 05:43:22;;;;;;;2.17;1.50;;;7.60;22.60;;;;;;5107146;27;34106;-77
2022/09/19 05:45:50;;;;;;;1.48;1.17;;;7.60;22.10;;;;;;5090443;27;34346;-77
2022/09/19 05:48:16;;;;;;;1.58;1.45;;;7.60;22.10;;;;;;5090248;27;36723;-77
2022/09/19 05:50:43;;;;;;;1.58;1.33;;;7.60;21.90;;;;;;5106714;27;33876;-77
2022/09/19 05:55:52;;;;;;;1.73;1.40;;;7.70;22.10;;;;;;5125211;27;34443;-77
2022/09/19 05:58:19;;;;;;;2.13;1.75;;;7.70;22.20;;;;;;5073254;27;35626;-77
2022/09/19 06:00:45;;;;;;;4.13;1.85;;;7.80;22.30;;;;;;5090650;27;34436;-77
2022/09/19 06:03:16;;;;;;;2.22;2.00;;;7.80;22.70;;;;;;5090290;27;34154;-76
2022/09/19 06:05:45;;;;;;;3.00;1.65;;;8.00;22.70;;;;;;5107256;27;34152;-77
2022/09/19 06:08:13;;;;;;;2.40;1.40;;;8.10;22.40;;;;;;5090151;27;35898;-77
2022/09/19 06:10:40;;;;;;;1.85;1.65;;;8.20;22.10;;;;;;5106660;27;34249;-76
2022/09/19 06:13:11;;;;;;;3.08;1.60;;;8.30;21.80;;;;;;5088426;28;34162;-77
2022/09/19 06:15:37;;;;;;;3.15;1.80;;;8.30;22.00;;;;;;5086791;28;34390;-77
2022/09/19 06:18:03;;;;;;;1.83;1.60;;;8.40;22.50;;;;;;5103042;28;35817;-77
2022/09/19 06:20:29;;;;;;;3.50;1.85;;;8.50;22.00;;;;;;5086299;28;34310;-78
2022/09/19 06:22:57;;;;;;;3.78;2.05;;;8.60;21.70;;;;;;5086906;28;34208;-77
2022/09/19 06:25:25;;;;;;;3.95;1.60;;;8.60;21.80;;;;;;5086965;28;34151;-77
2022/09/19 06:27:53;;;;;;;5.47;1.95;;;8.70;21.90;;;;;;5086330;28;35785;-77
2022/09/19 06:30:19;;;;;;;4.13;2.05;;;8.80;22.20;;;;;;5086195;28;34155;-77
2022/09/19 06:32:45;;;;;;;2.38;2.17;;;8.80;22.40;;;;;;5119881;27;34361;-77
2022/09/19 06:35:11;;;;;;;5.25;2.50;;;8.90;21.70;;;;;;5121058;27;34203;-77
2022/09/19 06:37:37;;;;;;;3.72;2.15;;;8.90;21.50;;;;;;5119887;27;36082;-77
2022/09/19 06:40:03;;;;;;;7.05;2.30;;;8.90;21.60;;;;;;5086240;28;34177;-77
2022/09/19 06:42:29;;;;;;;5.20;2.40;;;9.00;21.60;;;;;;5120732;27;34448;-77
2022/09/19 06:44:56;;;;;;;3.53;2.10;;;9.00;21.80;;;;;;5103626;28;34080;-77
2022/09/19 06:47:22;;;;;;;4.47;1.98;;;9.00;22.50;;;;;;5108544;27;35832;-77
2022/09/19 06:49:48;;;;;;;2.65;2.42;;;9.00;21.60;;;;;;5089152;27;34361;-77
2022/09/19 06:52:14;;;;;;;3.05;2.20;;;9.00;22.80;;;;;;5124971;27;34076;-77
2022/09/19 06:54:40;;;;;;;5.38;2.50;;;9.10;22.80;;;;;;5088431;27;34421;-77
2022/09/19 06:57:05;;;;;;;2.15;1.95;;;9.20;22.30;;;;;;5106455;27;36368;-77
2022/09/19 06:59:31;;;;;;;2.45;2.03;;;9.20;22.30;;;;;;5106476;27;34200;-77
2022/09/19 07:01:59;;;;;;;2.33;2.13;;;9.40;22.30;;;;;;5089446;27;34159;-77
2022/09/19 07:04:25;;;;;;;3.20;2.40;;;9.50;22.10;;;;;;5089460;27;34065;-78
2022/09/19 07:06:51;;;;;;;4.72;2.80;;;9.80;22.10;;;;;;5106637;27;34482;-78
2022/09/19 07:09:18;;;;;;;4.95;2.83;;;10.00;21.70;;;;;;5089543;27;34114;-77
2022/09/19 07:11:44;;;;;;;4.55;3.10;;;10.20;21.50;;;;;;5088847;27;34239;-77
2022/09/19 07:14:11;;;;;;;6.32;3.20;;;10.50;21.90;;;;;;5106948;27;34092;-77
2022/09/19 07:16:37;;;;;;;13.48;3.25;;;10.60;21.60;;;;;;5106371;27;34249;-77
2022/09/19 07:19:03;;;;;;;4.25;3.33;;;10.80;21.30;;;;;;5108175;27;34187;-78
2022/09/19 07:21:29;;;;;;;9.15;3.13;;;10.90;21.60;;;;;;5106632;27;34155;-77
2022/09/19 07:23:55;;;;;;;7.07;3.72;;;11.00;21.70;;;;;;5089164;27;34631;-77
2022/09/19 07:26:22;;;;;;;7.03;3.45;;;11.20;21.40;;;;;;5073551;27;35952;-79
2022/09/19 07:28:48;;;;;;;8.07;3.97;;;11.40;21.40;;;;;;5126424;27;34055;-77
2022/09/19 07:31:14;;;;;;;6.88;3.40;;;11.60;22.00;;;;;;5090386;27;34230;-78
2022/09/19 07:33:40;;;;;;;6.25;3.83;;;11.80;21.40;;;;;;5091990;27;34134;-78
2022/09/19 07:36:07;;;;;;;5.10;3.50;;;12.00;21.10;;;;;;5107722;27;35563;-78
2022/09/19 07:38:33;;;;;;;9.40;3.60;;;12.10;21.10;;;;;;5090639;27;34058;-76
2022/09/19 07:41:01;;;;;;;8.95;3.63;;;12.40;21.00;;;;;;5125291;27;34017;-77
2022/09/19 07:43:27;;;;;;;8.15;4.35;;;12.60;21.50;;;;;;5107423;27;34373;-77
2022/09/19 07:45:53;;;;;;;8.98;4.13;;;12.80;21.10;;;;;;5107795;27;36451;-78
2022/09/19 07:48:19;;;;;;;8.43;4.13;;;13.00;20.80;;;;;;5107044;27;34291;-77
2022/09/19 07:50:47;;;;;;;6.82;3.70;;;13.10;20.50;;;;;;5105532;27;34490;-78
2022/09/19 07:53:16;;;;;;;9.25;3.53;;;13.20;20.10;;;;;;5123957;27;34296;-77
2022/09/19 07:55:42;;;;;;;7.22;3.55;;;13.30;20.40;;;;;;5124241;27;34996;-76
2022/09/19 07:58:11;;;;;;;5.38;2.97;;;13.30;20.80;;;;;;5088292;27;34094;-77
2022/09/19 08:00:39;;;;;;;11.73;3.83;;;13.30;20.40;;;;;;5123692;27;34111;-77
2022/09/19 08:03:10;;;;;;;4.40;3.20;;;13.30;19.90;;;;;;5104795;27;34076;-77
2022/09/19 08:05:39;;;;;;;6.90;3.53;;;13.30;20.00;;;;;;5106565;27;35623;-78
2022/09/19 08:08:07;;;;;;;5.07;3.28;;;13.30;20.00;;;;;;5075243;27;34477;-76
2022/09/19 08:10:34;;;;;;;7.50;3.63;;;13.40;20.30;;;;;;5107579;27;34156;-76
2022/09/19 08:13:19;;;;;;;5.47;3.17;;;13.40;20.10;;;;;;5108784;27;34215;-81
2022/09/19 08:15:48;;;;;;;8.40;3.63;;;13.50;20.00;;;;;;4905265;27;5648687;-77
2022/09/19 08:18:17;;;;;;;7.65;3.25;;;13.60;21.20;;;;;;5128411;27;34168;-77
2022/09/19 08:20:44;;;;;;;8.38;3.28;;;13.50;19.90;;;;;;5077509;27;34054;-76
2022/09/19 08:23:12;;;;;;;12.93;3.67;;;13.60;20.10;;;;;;5128528;27;34187;-76
2022/09/19 08:25:46;;;;;;;6.93;2.92;;;13.60;20.00;;;;;;5125351;27;36838;-76
2022/09/19 08:28:13;;;;;;;4.93;3.08;;;13.80;20.00;;;;;;5126355;27;34232;-77
2022/09/19 08:30:42;;;;;;;9.63;2.85;;;13.90;20.20;;;;;;5125742;27;34030;-77
2022/09/19 08:33:10;;;;;;;6.30;3.08;;;14.00;20.00;;;;;;5109281;27;34531;-76
2022/09/19 08:35:37;;;;;;;5.60;3.30;;;14.20;19.90;;;;;;5125849;27;35764;-76
2022/09/19 08:38:05;;;;;;;5.85;2.90;;;14.40;19.80;;;;;;5109613;27;34508;-76
2022/09/19 08:40:43;;;;;;;5.47;2.67;;;14.50;19.70;;;;;;5108842;27;34188;-76
2022/09/19 08:43:17;;;;;;;8.70;2.90;;;14.70;19.70;;;;;;5125986;27;34580;-76
2022/09/19 08:46:10;;;;;;;7.82;2.53;;;14.90;19.70;;;;;;5125092;27;36348;-76
2022/09/19 08:48:52;;;;;;;7.18;2.95;;;15.10;19.50;;;;;;5125756;27;34197;-78
2022/09/19 08:51:26;;;;;;;7.75;2.67;;;15.30;18.40;;;;;;5125787;27;34307;-76
2022/09/19 08:54:01;;;;;;;8.77;2.58;;;15.40;17.90;;;;;;5108713;27;34558;-76
2022/09/19 08:56:29;;;;;;;6.80;2.75;;;15.50;17.70;;;;;;5125591;27;36375;-77
2022/09/19 08:59:01;;;;;;;4.82;2.25;;;15.60;18.20;;;;;;5125329;27;34152;-77
2022/09/19 09:01:36;;;;;;;6.97;2.20;;;15.60;17.70;;;;;;5127518;27;34051;-77
2022/09/19 09:04:17;;;;;;;6.45;2.47;;;15.80;18.20;;;;;;5130098;27;34172;-80
2022/09/19 09:07:00;;;;;;;7.35;2.17;;;15.90;17.00;;;;;;5130749;27;34876;-79
2022/09/19 09:09:44;;;;;;;5.53;2.22;;;15.90;17.40;;;;;;5114374;27;34265;-78
2022/09/19 09:12:31;;;;;;;5.10;2.20;;;16.00;16.70;;;;;;5127243;27;34127;-79
2022/09/19 09:15:20;;;;;;;5.25;1.88;;;16.10;16.60;;;;;;5125857;27;34103;-77
2022/09/19 09:18:23;;;;;;;5.85;2.00;;;16.30;15.70;;;;;;5110459;27;36393;-80
2022/09/19 09:21:00;;;;;;;4.72;1.55;;;16.40;16.00;;;;;;5118978;27;34280;-79
2022/09/19 09:23:36;;;;;;;4.85;1.85;;;16.50;15.30;;;;;;5130197;27;35029;-77
2022/09/19 09:26:09;;;;;;;2.55;1.70;;;16.60;16.90;;;;;;5111476;27;34159;-78
2022/09/19 09:28:44;;;;;;;4.15;1.67;;;16.50;16.30;;;;;;5097006;27;36483;-80
2022/09/19 09:31:25;;;;;;;6.72;1.70;;;16.60;16.20;;;;;;5130495;27;33739;-78
2022/09/19 09:33:58;;;;;;;3.30;1.65;;;16.60;14.70;;;;;;5130272;27;34111;-76
2022/09/19 09:36:31;;;;;;;5.28;1.65;;;16.80;16.40;;;;;;5132313;27;34126;-79
2022/09/19 09:39:08;;;;;;;5.60;1.85;;;17.00;15.30;;;;;;5129317;27;35631;-77
2022/09/19 09:41:45;;;;;;;6.03;1.60;;;17.20;15.60;;;;;;5127991;27;34191;-79
2022/09/19 09:44:30;;;;;;;3.40;1.25;;;17.40;14.80;;;;;;5111433;27;34456;-79
2022/09/19 09:47:31;;;;;;;3.50;1.52;;;17.60;10.30;;;;;;5112469;27;34077;-76
2022/09/19 09:50:17;;;;;;;4.70;1.38;;;18.00;12.70;;;;;;5110585;27;36369;-82
2022/09/19 09:52:59;;;;;;;4.63;1.30;;;18.40;13.00;;;;;;5112877;27;34186;-82
2022/09/19 09:58:37;;;;;;;8.65;1.38;;;18.40;10.20;;;;;;5123613;27;34518;-80
2022/09/19 10:04:14;;;;;;;5.07;1.25;;;18.20;8.40;;;;;;5128177;27;34422;-78
2022/09/19 10:06:59;;;;;;;7.35;1.63;;;18.20;10.80;;;;;;5105801;27;34139;-79
2022/09/19 10:09:32;;;;;;;3.10;1.02;;;18.30;10.90;;;;;;5110218;27;34162;-77
2022/09/19 10:12:15;;;;;;;5.03;1.20;;;18.50;11.90;;;;;;5118726;27;35361;-77
2022/09/19 10:14:43;;;;;;;4.55;1.00;;;18.70;11.60;;;;;;5111144;27;34345;-79
2022/09/19 10:17:09;;;;;;;3.97;0.90;;;19.10;12.50;;;;;;5109255;27;34115;-77
2022/09/19 10:19:41;;;;;;;4.43;1.25;;;19.10;12.70;;;;;;5118680;27;34335;-79
2022/09/19 10:22:14;;;;;;;4.03;1.00;;;19.20;7.70;;;;;;5111633;27;34474;-79
2022/09/19 10:24:45;;;;;;;5.68;0.93;;;19.00;11.10;;;;;;5109822;27;34593;-77
2022/09/19 10:27:17;;;;;;;4.07;1.00;;;18.90;10.90;;;;;;5110955;27;34127;-79
2022/09/19 10:30:00;;;;;;;2.28;1.02;;;18.90;10.70;;;;;;5093256;27;33836;-78
2022/09/19 10:32:37;;;;;;;2.50;1.13;;;18.80;7.00;;;;;;5105783;27;36424;-78
2022/09/19 10:35:25;;;;;;;4.78;1.13;;;18.80;11.40;;;;;;5091675;28;34480;-77
2022/09/19 10:38:13;;;;;;;6.50;1.15;;;18.80;7.60;;;;;;5107872;27;34519;-77
2022/09/19 10:40:58;;;;;;;1.75;1.05;;;18.80;11.10;;;;;;5094078;27;34163;-78
2022/09/19 10:43:31;;;;;;;6.32;1.17;;;18.70;8.30;;;;;;5127916;27;34185;-77
2022/09/19 10:45:58;;;;;;;8.20;1.50;;;18.70;10.50;;;;;;5108961;27;34161;-77
2022/09/19 10:48:30;;;;;;;2.13;0.70;;;18.70;11.50;;;;;;5108439;27;34226;-80
2022/09/19 10:50:59;;;;;;;5.78;1.13;;;18.70;10.60;;;;;;5108485;27;34147;-77
2022/09/19 10:53:30;;;;;;;5.60;1.30;;;19.00;11.20;;;;;;5108621;27;35307;-77
2022/09/19 10:56:02;;;;;;;3.83;1.27;;;19.40;10.40;;;;;;5109216;27;34254;-82
2022/09/19 10:58:35;;;;;;;4.55;1.08;;;19.50;10.10;;;;;;5098345;27;34299;-80
2022/09/19 11:01:05;;;;;;;2.13;0.88;;;19.60;10.20;;;;;;5109952;27;34168;-80
2022/09/19 11:03:35;;;;;;;2.78;0.90;;;19.50;10.00;;;;;;5078796;27;35852;-78
2022/09/19 11:06:07;;;;;;;3.15;0.75;;;19.50;9.80;;;;;;5108577;27;34147;-78
2022/09/19 11:08:45;;;;;;;3.50;0.90;;;19.50;9.10;;;;;;5094246;27;34132;-79
2022/09/19 11:11:37;;;;;;;4.28;1.02;;;19.70;7.80;;;;;;5112357;27;34357;-77
2022/09/19 11:14:18;;;;;;;2.20;0.80;;;19.90;5.50;;;;;;5113595;27;34336;-78
2022/09/19 11:17:15;;;;;;;5.60;0.90;;;19.90;5.30;;;;;;5131619;27;34064;-79
2022/09/19 11:20:03;;;;;;;2.20;0.80;;;20.00;5.00;;;;;;5113859;27;33672;-78
2022/09/19 11:22:47;;;;;;;6.10;1.27;;;19.90;3.30;;;;;;5113007;27;34153;-79
2022/09/19 11:25:24;;;;;;;4.25;1.20;;;19.80;6.00;;;;;;5130058;27;34470;-78
2022/09/19 11:28:06;;;;;;;4.43;0.80;;;19.60;7.20;;;;;;5094556;27;34378;-79
2022/09/19 11:30:41;;;;;;;3.97;0.80;;;19.60;4.30;;;;;;5095097;27;34250;-80
2022/09/19 11:33:38;;;;;;;1.88;0.70;;;19.50;6.80;;;;;;5111570;27;34294;-78
2022/09/19 11:36:19;;;;;;;4.38;0.85;;;19.40;6.30;;;;;;5111131;27;35645;-77
2022/09/19 11:39:01;;;;;;;2.38;0.70;;;19.50;6.70;;;;;;5094487;27;34351;-78
2022/09/19 11:41:36;;;;;;;3.63;0.65;;;19.40;6.80;;;;;;5095488;27;34364;-78
2022/09/19 11:44:32;;;;;;;4.38;0.77;;;19.40;6.70;;;;;;5115675;27;34511;-79
2022/09/19 11:47:20;;;;;;;3.40;0.98;;;19.30;2.90;;;;;;5131055;27;34082;-78
2022/09/19 11:50:08;;;;;;;3.40;0.95;;;19.30;3.80;;;;;;5097652;27;33911;-79
2022/09/19 11:53:06;;;;;;;2.15;0.50;;;19.30;5.60;;;;;;5114471;27;34230;-79
2022/09/19 11:55:54;;;;;;;1.33;0.70;;;19.30;3.50;;;;;;5128887;27;34343;-77
2022/09/19 11:58:38;;;;;;;3.33;0.75;;;19.20;4.70;;;;;;5128023;27;34969;-75
2022/09/19 12:01:31;;;;;;;8.40;1.45;;;19.10;4.90;;;;;;5089214;28;34399;-76
2022/09/19 12:04:19;;;;;;;3.40;0.57;;;19.10;5.30;;;;;;5090090;28;34156;-76
2022/09/19 12:07:12;;;;;;;2.72;0.80;;;19.10;3.30;;;;;;5090467;28;34504;-78
2022/09/19 12:09:46;;;;;;;3.80;0.77;;;19.10;5.50;;;;;;5099769;27;35951;-77
2022/09/19 12:12:17;;;;;;;1.95;0.52;;;19.10;6.70;;;;;;5099247;28;34230;-76
2022/09/19 12:14:55;;;;;;;3.85;0.70;;;19.20;6.70;;;;;;5089151;28;34290;-77
2022/09/19 12:17:26;;;;;;;0.75;0.50;;;19.30;6.40;;;;;;5112745;27;34161;-76
2022/09/19 12:20:24;;;;;;;1.95;0.65;;;19.40;7.00;;;;;;5136427;27;35324;-77
2022/09/19 12:22:55;;;;;;;4.75;1.00;;;19.40;4.20;;;;;;5143046;27;34216;-77
2022/09/19 12:25:28;;;;;;;2.55;0.90;;;19.50;7.10;;;;;;5124500;27;34235;-77
2022/09/19 12:28:06;;;;;;;3.72;0.70;;;19.50;6.90;;;;;;5094096;28;34258;-79
2022/09/19 12:30:39;;;;;;;3.05;0.60;;;19.70;6.80;;;;;;5127008;27;35607;-76
2022/09/19 12:33:27;;;;;;;3.10;0.80;;;19.90;5.00;;;;;;5149628;27;34356;-77
2022/09/19 12:36:12;;;;;;;1.35;0.52;;;20.00;5.50;;;;;;5103859;28;33825;-81
2022/09/19 12:38:56;;;;;;;4.10;0.80;;;20.10;4.70;;;;;;5091114;28;34195;-80
2022/09/19 12:41:44;;;;;;;2.45;0.65;;;20.00;2.20;;;;;;5092620;28;36258;-78
2022/09/19 12:44:43;;;;;;;3.25;0.80;;;20.00;5.20;;;;;;5090580;28;34112;-76
2022/09/19 12:47:38;;;;;;;3.15;0.95;;;20.10;2.60;;;;;;5081113;28;34288;-77
2022/09/19 12:50:22;;;;;;;1.70;0.45;;;20.10;1.50;;;;;;5109723;28;33905;-76
2022/09/19 12:53:20;;;;;;;3.95;0.70;;;20.00;1.00;;;;;;5105798;28;35801;-77
2022/09/19 12:56:02;;;;;;;2.60;0.63;;;19.90;1.70;;;;;;5090380;28;34458;-77
2022/09/19 12:58:49;;;;;;;4.43;0.82;;;20.00;3.30;;;;;;5112575;28;34310;-78
2022/09/19 13:01:24;;;;;;;2.60;0.52;;;19.90;2.90;;;;;;5093457;28;34440;-81
2022/09/19 13:04:02;;;;;;;3.20;0.60;;;20.00;3.00;;;;;;5111391;28;34077;-78
2022/09/19 13:06:32;;;;;;;1.42;0.52;;;20.10;3.50;;;;;;5112167;28;34060;-79
2022/09/19 13:09:06;;;;;;;2.17;0.98;;;20.10;4.80;;;;;;5111406;28;34254;-77
2022/09/19 13:11:40;;;;;;;2.47;0.68;;;20.00;3.00;;;;;;5090529;27;34488;-77
2022/09/19 13:14:19;;;;;;;3.42;0.63;;;19.90;3.30;;;;;;5090390;28;34180;-77
2022/09/19 13:24:57;;;;;;;3.63;0.98;;;19.60;4.70;;;;;;5107993;28;35350;-78
2022/09/19 13:27:25;;;;;;;1.92;0.65;;;19.60;4.20;;;;;;5110902;28;34452;-76
2022/09/19 13:29:53;;;;;;;3.28;0.50;;;19.50;4.40;;;;;;5106596;27;34384;-76
2022/09/19 13:32:52;;;;;;;2.53;0.90;;;19.60;4.90;;;;;;5107703;28;34067;-76
2022/09/19 13:35:22;;;;;;;5.63;0.70;;;19.70;1.00;;;;;;5081491;28;36407;-77
2022/09/19 13:37:53;;;;;;;2.50;0.57;;;19.80;4.70;;;;;;5091177;28;34397;-76
2022/09/19 13:40:39;;;;;;;3.10;0.68;;;19.90;4.40;;;;;;5107709;28;34104;-75
2022/09/19 13:43:22;;;;;;;2.88;0.77;;;20.00;1.00;;;;;;5109513;28;34110;-82
2022/09/19 13:46:10;;;;;;;0.85;0.38;;;20.00;1.00;;;;;;5093220;28;35916;-80
2022/09/19 13:48:58;;;;;;;3.58;0.60;;;19.90;1.00;;;;;;5107373;28;34090;-77
2022/09/19 13:51:37;;;;;;;2.40;0.88;;;19.80;1.00;;;;;;5093796;28;33611;-79